sensor_id;sensor_type;location;lat;lon;timestamp;P1;durP1;ratioP1;P2;durP2;ratioP2
6354;SDS011;3210;48.708;9.030;2023-08-06T00:01:24;2.23;;;2.13;;
6354;SDS011;3210;48.708;9.030;2023-08-06T00:03:51;2.50;;;2.40;;
6354;SDS011;3210;48.708;9.030;2023-08-06T00:06:17;4.07;;;2.40;;
6354;SDS011;3210;48.708;9.030;2023-08-06T00:08:46;2.40;;;2.20;;
6354;SDS011;3210;48.708;9.030;2023-08-06T00:11:12;5.17;;;2.73;;
6354;SDS011;3210;48.708;9.030;2023-08-06T00:13:39;3.70;;;2.40;;
6354;SDS011;3210;48.708;9.030;2023-08-06T00:16:09;2.53;;;2.27;;
6354;SDS011;3210;48.708;9.030;2023-08-06T00:18:36;7.93;;;2.17;;
6354;SDS011;3210;48.708;9.030;2023-08-06T00:21:03;2.30;;;2.10;;
6354;SDS011;3210;48.708;9.030;2023-08-06T00:23:30;2.23;;;2.03;;
6354;SDS011;3210;48.708;9.030;2023-08-06T00:25:58;2.40;;;2.30;;
6354;SDS011;3210;48.708;9.030;2023-08-06T00:28:25;3.00;;;2.70;;
6354;SDS011;3210;48.708;9.030;2023-08-06T00:30:52;2.63;;;2.47;;
6354;SDS011;3210;48.708;9.030;2023-08-06T00:33:20;2.47;;;1.97;;
6354;SDS011;3210;48.708;9.030;2023-08-06T00:35:46;2.60;;;2.00;;
6354;SDS011;3210;48.708;9.030;2023-08-06T00:38:13;2.43;;;2.23;;
6354;SDS011;3210;48.708;9.030;2023-08-06T00:40:40;2.00;;;1.90;;
6354;SDS011;3210;48.708;9.030;2023-08-06T00:43:08;3.00;;;2.80;;
6354;SDS011;3210;48.708;9.030;2023-08-06T00:45:35;2.10;;;1.90;;
6354;SDS011;3210;48.708;9.030;2023-08-06T00:48:03;2.30;;;2.10;;
6354;SDS011;3210;48.708;9.030;2023-08-06T00:50:32;5.00;;;2.30;;
6354;SDS011;3210;48.708;9.030;2023-08-06T00:52:59;2.80;;;2.60;;
6354;SDS011;3210;48.708;9.030;2023-08-06T00:55:26;3.80;;;2.50;;
6354;SDS011;3210;48.708;9.030;2023-08-06T00:57:53;2.60;;;2.40;;
6354;SDS011;3210;48.708;9.030;2023-08-06T01:00:22;6.20;;;2.23;;
6354;SDS011;3210;48.708;9.030;2023-08-06T01:02:50;2.43;;;2.23;;
6354;SDS011;3210;48.708;9.030;2023-08-06T01:05:17;2.03;;;1.83;;
6354;SDS011;3210;48.708;9.030;2023-08-06T01:07:47;4.30;;;2.00;;
6354;SDS011;3210;48.708;9.030;2023-08-06T01:10:23;5.50;;;2.00;;
6354;SDS011;3210;48.708;9.030;2023-08-06T01:13:00;2.90;;;1.80;;
6354;SDS011;3210;48.708;9.030;2023-08-06T01:15:37;2.30;;;2.10;;
6354;SDS011;3210;48.708;9.030;2023-08-06T01:18:10;2.10;;;1.90;;
6354;SDS011;3210;48.708;9.030;2023-08-06T01:20:38;3.30;;;2.20;;
6354;SDS011;3210;48.708;9.030;2023-08-06T01:23:05;1.90;;;1.80;;
6354;SDS011;3210;48.708;9.030;2023-08-06T01:25:33;4.03;;;2.00;;
6354;SDS011;3210;48.708;9.030;2023-08-06T01:28:04;1.77;;;1.67;;
6354;SDS011;3210;48.708;9.030;2023-08-06T01:30:37;1.90;;;1.80;;
6354;SDS011;3210;48.708;9.030;2023-08-06T01:33:06;6.97;;;2.20;;
6354;SDS011;3210;48.708;9.030;2023-08-06T01:35:41;2.30;;;1.83;;
6354;SDS011;3210;48.708;9.030;2023-08-06T01:38:09;3.30;;;1.70;;
6354;SDS011;3210;48.708;9.030;2023-08-06T01:40:35;1.83;;;1.67;;
6354;SDS011;3210;48.708;9.030;2023-08-06T01:43:02;3.03;;;1.80;;
6354;SDS011;3210;48.708;9.030;2023-08-06T01:45:29;2.83;;;1.80;;
6354;SDS011;3210;48.708;9.030;2023-08-06T01:47:56;1.60;;;1.50;;
6354;SDS011;3210;48.708;9.030;2023-08-06T01:50:23;2.50;;;1.90;;
6354;SDS011;3210;48.708;9.030;2023-08-06T01:52:51;3.70;;;1.70;;
6354;SDS011;3210;48.708;9.030;2023-08-06T01:55:18;3.83;;;1.93;;
6354;SDS011;3210;48.708;9.030;2023-08-06T01:57:44;2.83;;;1.50;;
6354;SDS011;3210;48.708;9.030;2023-08-06T02:00:12;4.60;;;1.90;;
6354;SDS011;3210;48.708;9.030;2023-08-06T02:02:39;2.50;;;1.47;;
6354;SDS011;3210;48.708;9.030;2023-08-06T02:05:06;2.57;;;1.60;;
6354;SDS011;3210;48.708;9.030;2023-08-06T02:07:33;2.17;;;1.97;;
6354;SDS011;3210;48.708;9.030;2023-08-06T02:10:01;3.07;;;2.70;;
6354;SDS011;3210;48.708;9.030;2023-08-06T02:12:28;2.70;;;1.70;;
6354;SDS011;3210;48.708;9.030;2023-08-06T02:14:55;2.20;;;1.97;;
6354;SDS011;3210;48.708;9.030;2023-08-06T02:17:22;4.80;;;1.37;;
6354;SDS011;3210;48.708;9.030;2023-08-06T02:19:48;3.13;;;2.10;;
6354;SDS011;3210;48.708;9.030;2023-08-06T02:22:15;1.93;;;1.83;;
6354;SDS011;3210;48.708;9.030;2023-08-06T02:24:42;2.57;;;1.50;;
6354;SDS011;3210;48.708;9.030;2023-08-06T02:27:10;2.20;;;1.90;;
6354;SDS011;3210;48.708;9.030;2023-08-06T02:29:37;3.10;;;1.80;;
6354;SDS011;3210;48.708;9.030;2023-08-06T02:32:06;2.40;;;1.90;;
6354;SDS011;3210;48.708;9.030;2023-08-06T02:34:33;3.10;;;2.00;;
6354;SDS011;3210;48.708;9.030;2023-08-06T02:37:00;2.73;;;2.17;;
6354;SDS011;3210;48.708;9.030;2023-08-06T02:39:27;2.37;;;2.17;;
6354;SDS011;3210;48.708;9.030;2023-08-06T02:41:54;2.10;;;1.87;;
6354;SDS011;3210;48.708;9.030;2023-08-06T02:44:22;2.13;;;2.00;;
6354;SDS011;3210;48.708;9.030;2023-08-06T02:46:49;2.30;;;2.10;;
6354;SDS011;3210;48.708;9.030;2023-08-06T02:49:15;1.87;;;1.77;;
6354;SDS011;3210;48.708;9.030;2023-08-06T02:51:44;2.03;;;1.83;;
6354;SDS011;3210;48.708;9.030;2023-08-06T02:54:11;2.30;;;1.57;;
6354;SDS011;3210;48.708;9.030;2023-08-06T02:56:38;2.70;;;1.70;;
6354;SDS011;3210;48.708;9.030;2023-08-06T02:59:04;1.90;;;1.80;;
6354;SDS011;3210;48.708;9.030;2023-08-06T03:01:32;2.90;;;1.70;;
6354;SDS011;3210;48.708;9.030;2023-08-06T03:04:01;2.20;;;2.00;;
6354;SDS011;3210;48.708;9.030;2023-08-06T03:06:28;3.90;;;2.13;;
6354;SDS011;3210;48.708;9.030;2023-08-06T03:08:55;1.77;;;1.67;;
6354;SDS011;3210;48.708;9.030;2023-08-06T03:11:21;2.60;;;1.50;;
6354;SDS011;3210;48.708;9.030;2023-08-06T03:13:48;3.50;;;2.60;;
6354;SDS011;3210;48.708;9.030;2023-08-06T03:16:15;2.20;;;1.90;;
6354;SDS011;3210;48.708;9.030;2023-08-06T03:18:43;3.43;;;2.10;;
6354;SDS011;3210;48.708;9.030;2023-08-06T03:21:10;14.13;;;3.13;;
6354;SDS011;3210;48.708;9.030;2023-08-06T03:23:37;3.67;;;1.67;;
6354;SDS011;3210;48.708;9.030;2023-08-06T03:26:03;1.87;;;1.50;;
6354;SDS011;3210;48.708;9.030;2023-08-06T03:28:30;4.90;;;1.60;;
6354;SDS011;3210;48.708;9.030;2023-08-06T03:31:00;3.10;;;1.40;;
6354;SDS011;3210;48.708;9.030;2023-08-06T03:33:28;3.37;;;1.33;;
6354;SDS011;3210;48.708;9.030;2023-08-06T03:35:56;1.80;;;1.60;;
6354;SDS011;3210;48.708;9.030;2023-08-06T03:38:23;2.47;;;1.37;;
6354;SDS011;3210;48.708;9.030;2023-08-06T03:40:49;2.10;;;1.90;;
6354;SDS011;3210;48.708;9.030;2023-08-06T03:43:16;1.77;;;1.60;;
6354;SDS011;3210;48.708;9.030;2023-08-06T03:45:43;3.47;;;1.50;;
6354;SDS011;3210;48.708;9.030;2023-08-06T03:48:10;5.73;;;1.83;;
6354;SDS011;3210;48.708;9.030;2023-08-06T03:50:37;2.17;;;1.80;;
6354;SDS011;3210;48.708;9.030;2023-08-06T03:53:05;3.13;;;1.83;;
6354;SDS011;3210;48.708;9.030;2023-08-06T03:55:32;1.70;;;1.60;;
6354;SDS011;3210;48.708;9.030;2023-08-06T03:57:59;3.30;;;1.43;;
6354;SDS011;3210;48.708;9.030;2023-08-06T04:00:25;3.30;;;1.83;;
6354;SDS011;3210;48.708;9.030;2023-08-06T04:02:52;2.90;;;1.77;;
6354;SDS011;3210;48.708;9.030;2023-08-06T04:05:19;1.80;;;1.70;;
6354;SDS011;3210;48.708;9.030;2023-08-06T04:07:46;5.93;;;1.87;;
6354;SDS011;3210;48.708;9.030;2023-08-06T04:10:14;1.97;;;1.57;;
6354;SDS011;3210;48.708;9.030;2023-08-06T04:12:41;6.70;;;1.53;;
6354;SDS011;3210;48.708;9.030;2023-08-06T04:15:08;3.17;;;1.23;;
6354;SDS011;3210;48.708;9.030;2023-08-06T04:17:35;4.37;;;1.43;;
6354;SDS011;3210;48.708;9.030;2023-08-06T04:20:01;1.77;;;1.67;;
6354;SDS011;3210;48.708;9.030;2023-08-06T04:22:29;4.13;;;1.40;;
6354;SDS011;3210;48.708;9.030;2023-08-06T04:24:55;7.87;;;1.90;;
6354;SDS011;3210;48.708;9.030;2023-08-06T04:27:24;1.37;;;1.27;;
6354;SDS011;3210;48.708;9.030;2023-08-06T04:29:50;1.50;;;1.40;;
6354;SDS011;3210;48.708;9.030;2023-08-06T04:32:17;3.53;;;1.30;;
6354;SDS011;3210;48.708;9.030;2023-08-06T04:34:44;3.67;;;1.50;;
6354;SDS011;3210;48.708;9.030;2023-08-06T04:37:11;3.80;;;1.60;;
6354;SDS011;3210;48.708;9.030;2023-08-06T04:39:38;1.53;;;1.03;;
6354;SDS011;3210;48.708;9.030;2023-08-06T04:42:05;3.70;;;1.87;;
6354;SDS011;3210;48.708;9.030;2023-08-06T04:44:34;1.67;;;1.00;;
6354;SDS011;3210;48.708;9.030;2023-08-06T04:47:00;1.80;;;1.10;;
6354;SDS011;3210;48.708;9.030;2023-08-06T04:49:27;1.57;;;0.87;;
6354;SDS011;3210;48.708;9.030;2023-08-06T04:51:54;1.83;;;1.27;;
6354;SDS011;3210;48.708;9.030;2023-08-06T04:54:21;1.63;;;1.30;;
6354;SDS011;3210;48.708;9.030;2023-08-06T04:56:47;1.90;;;1.70;;
6354;SDS011;3210;48.708;9.030;2023-08-06T04:59:14;1.20;;;1.07;;
6354;SDS011;3210;48.708;9.030;2023-08-06T05:01:42;2.90;;;1.73;;
6354;SDS011;3210;48.708;9.030;2023-08-06T05:04:09;4.07;;;1.60;;
6354;SDS011;3210;48.708;9.030;2023-08-06T05:06:36;5.20;;;1.20;;
6354;SDS011;3210;48.708;9.030;2023-08-06T05:09:04;3.20;;;1.10;;
6354;SDS011;3210;48.708;9.030;2023-08-06T05:11:31;2.83;;;1.10;;
6354;SDS011;3210;48.708;9.030;2023-08-06T05:13:57;1.40;;;1.00;;
6354;SDS011;3210;48.708;9.030;2023-08-06T05:16:24;2.80;;;1.03;;
6354;SDS011;3210;48.708;9.030;2023-08-06T05:18:52;1.13;;;0.60;;
6354;SDS011;3210;48.708;9.030;2023-08-06T05:21:19;1.70;;;0.80;;
6354;SDS011;3210;48.708;9.030;2023-08-06T05:23:46;3.30;;;0.90;;
6354;SDS011;3210;48.708;9.030;2023-08-06T05:26:13;3.90;;;0.80;;
6354;SDS011;3210;48.708;9.030;2023-08-06T05:28:43;2.97;;;1.10;;
6354;SDS011;3210;48.708;9.030;2023-08-06T05:31:10;0.70;;;0.67;;
6354;SDS011;3210;48.708;9.030;2023-08-06T05:33:37;1.23;;;0.40;;
6354;SDS011;3210;48.708;9.030;2023-08-06T05:36:05;1.30;;;0.70;;
6354;SDS011;3210;48.708;9.030;2023-08-06T05:38:32;1.23;;;0.60;;
6354;SDS011;3210;48.708;9.030;2023-08-06T05:40:59;1.00;;;0.60;;
6354;SDS011;3210;48.708;9.030;2023-08-06T05:43:25;1.20;;;0.70;;
6354;SDS011;3210;48.708;9.030;2023-08-06T05:45:52;1.47;;;0.70;;
6354;SDS011;3210;48.708;9.030;2023-08-06T05:48:19;2.50;;;0.80;;
6354;SDS011;3210;48.708;9.030;2023-08-06T05:50:47;3.90;;;0.90;;
6354;SDS011;3210;48.708;9.030;2023-08-06T05:53:15;2.40;;;0.67;;
6354;SDS011;3210;48.708;9.030;2023-08-06T05:55:43;2.27;;;0.70;;
6354;SDS011;3210;48.708;9.030;2023-08-06T05:58:10;10.70;;;1.07;;
6354;SDS011;3210;48.708;9.030;2023-08-06T06:00:37;2.57;;;0.87;;
6354;SDS011;3210;48.708;9.030;2023-08-06T06:03:04;1.13;;;0.67;;
6354;SDS011;3210;48.708;9.030;2023-08-06T06:05:31;0.70;;;0.63;;
6354;SDS011;3210;48.708;9.030;2023-08-06T06:07:57;1.70;;;0.90;;
6354;SDS011;3210;48.708;9.030;2023-08-06T06:10:25;1.70;;;0.90;;
6354;SDS011;3210;48.708;9.030;2023-08-06T06:12:52;0.80;;;0.80;;
6354;SDS011;3210;48.708;9.030;2023-08-06T06:15:19;1.37;;;0.70;;
6354;SDS011;3210;48.708;9.030;2023-08-06T06:17:46;3.40;;;0.87;;
6354;SDS011;3210;48.708;9.030;2023-08-06T06:20:13;2.80;;;0.50;;
6354;SDS011;3210;48.708;9.030;2023-08-06T06:22:40;1.60;;;0.80;;
6354;SDS011;3210;48.708;9.030;2023-08-06T06:25:07;4.00;;;0.60;;
6354;SDS011;3210;48.708;9.030;2023-08-06T06:27:36;4.30;;;1.17;;
6354;SDS011;3210;48.708;9.030;2023-08-06T06:30:03;1.30;;;1.00;;
6354;SDS011;3210;48.708;9.030;2023-08-06T06:32:30;0.97;;;0.60;;
6354;SDS011;3210;48.708;9.030;2023-08-06T06:34:57;3.00;;;0.70;;
6354;SDS011;3210;48.708;9.030;2023-08-06T06:37:24;2.30;;;1.13;;
6354;SDS011;3210;48.708;9.030;2023-08-06T06:39:51;0.67;;;0.40;;
6354;SDS011;3210;48.708;9.030;2023-08-06T06:42:17;3.03;;;0.80;;
6354;SDS011;3210;48.708;9.030;2023-08-06T06:44:45;2.47;;;0.53;;
6354;SDS011;3210;48.708;9.030;2023-08-06T06:47:12;3.80;;;0.70;;
6354;SDS011;3210;48.708;9.030;2023-08-06T06:49:39;3.47;;;0.43;;
6354;SDS011;3210;48.708;9.030;2023-08-06T06:52:06;0.97;;;0.60;;
6354;SDS011;3210;48.708;9.030;2023-08-06T06:54:33;6.03;;;1.33;;
6354;SDS011;3210;48.708;9.030;2023-08-06T06:57:00;0.67;;;0.53;;
6354;SDS011;3210;48.708;9.030;2023-08-06T06:59:26;2.83;;;0.70;;
6354;SDS011;3210;48.708;9.030;2023-08-06T07:01:55;0.63;;;0.50;;
6354;SDS011;3210;48.708;9.030;2023-08-06T07:04:21;0.90;;;0.47;;
6354;SDS011;3210;48.708;9.030;2023-08-06T07:06:48;0.60;;;0.50;;
6354;SDS011;3210;48.708;9.030;2023-08-06T07:09:17;1.30;;;0.60;;
6354;SDS011;3210;48.708;9.030;2023-08-06T07:11:43;4.77;;;0.40;;
6354;SDS011;3210;48.708;9.030;2023-08-06T07:14:10;1.63;;;0.80;;
6354;SDS011;3210;48.708;9.030;2023-08-06T07:16:37;1.43;;;0.40;;
6354;SDS011;3210;48.708;9.030;2023-08-06T07:19:05;3.63;;;0.70;;
6354;SDS011;3210;48.708;9.030;2023-08-06T07:21:32;1.13;;;0.40;;
6354;SDS011;3210;48.708;9.030;2023-08-06T07:23:58;2.50;;;0.50;;
6354;SDS011;3210;48.708;9.030;2023-08-06T07:26:25;1.00;;;0.50;;
6354;SDS011;3210;48.708;9.030;2023-08-06T07:28:52;0.70;;;0.60;;
6354;SDS011;3210;48.708;9.030;2023-08-06T07:31:19;3.63;;;0.77;;
6354;SDS011;3210;48.708;9.030;2023-08-06T07:33:46;1.00;;;0.43;;
6354;SDS011;3210;48.708;9.030;2023-08-06T07:36:14;1.87;;;0.50;;
6354;SDS011;3210;48.708;9.030;2023-08-06T07:38:41;0.73;;;0.50;;
6354;SDS011;3210;48.708;9.030;2023-08-06T07:41:08;0.60;;;0.40;;
6354;SDS011;3210;48.708;9.030;2023-08-06T07:43:35;0.97;;;0.50;;
6354;SDS011;3210;48.708;9.030;2023-08-06T07:46:02;0.70;;;0.50;;
6354;SDS011;3210;48.708;9.030;2023-08-06T07:48:29;0.97;;;0.30;;
6354;SDS011;3210;48.708;9.030;2023-08-06T07:50:56;0.60;;;0.30;;
6354;SDS011;3210;48.708;9.030;2023-08-06T07:53:24;0.60;;;0.30;;
6354;SDS011;3210;48.708;9.030;2023-08-06T07:55:54;0.50;;;0.30;;
6354;SDS011;3210;48.708;9.030;2023-08-06T07:58:23;1.03;;;0.57;;
6354;SDS011;3210;48.708;9.030;2023-08-06T08:00:51;0.50;;;0.30;;
6354;SDS011;3210;48.708;9.030;2023-08-06T08:03:18;5.60;;;0.40;;
6354;SDS011;3210;48.708;9.030;2023-08-06T08:05:45;0.60;;;0.40;;
6354;SDS011;3210;48.708;9.030;2023-08-06T08:08:12;0.60;;;0.30;;
6354;SDS011;3210;48.708;9.030;2023-08-06T08:10:42;0.50;;;0.30;;
6354;SDS011;3210;48.708;9.030;2023-08-06T08:13:09;0.60;;;0.50;;
6354;SDS011;3210;48.708;9.030;2023-08-06T08:15:36;0.60;;;0.30;;
6354;SDS011;3210;48.708;9.030;2023-08-06T08:18:03;0.70;;;0.30;;
6354;SDS011;3210;48.708;9.030;2023-08-06T08:20:29;0.50;;;0.30;;
6354;SDS011;3210;48.708;9.030;2023-08-06T08:22:58;0.60;;;0.37;;
6354;SDS011;3210;48.708;9.030;2023-08-06T08:25:26;0.80;;;0.30;;
6354;SDS011;3210;48.708;9.030;2023-08-06T08:27:55;0.97;;;0.30;;
6354;SDS011;3210;48.708;9.030;2023-08-06T08:30:22;0.50;;;0.30;;
6354;SDS011;3210;48.708;9.030;2023-08-06T08:32:50;0.90;;;0.40;;
6354;SDS011;3210;48.708;9.030;2023-08-06T08:35:16;0.63;;;0.50;;
6354;SDS011;3210;48.708;9.030;2023-08-06T08:37:43;1.13;;;0.30;;
6354;SDS011;3210;48.708;9.030;2023-08-06T08:40:10;0.70;;;0.40;;
6354;SDS011;3210;48.708;9.030;2023-08-06T08:42:37;0.50;;;0.30;;
6354;SDS011;3210;48.708;9.030;2023-08-06T08:45:06;0.70;;;0.40;;
6354;SDS011;3210;48.708;9.030;2023-08-06T08:47:38;0.70;;;0.30;;
6354;SDS011;3210;48.708;9.030;2023-08-06T08:50:07;1.03;;;0.40;;
6354;SDS011;3210;48.708;9.030;2023-08-06T08:52:35;0.63;;;0.37;;
6354;SDS011;3210;48.708;9.030;2023-08-06T08:55:04;0.70;;;0.40;;
6354;SDS011;3210;48.708;9.030;2023-08-06T08:57:32;0.70;;;0.30;;
6354;SDS011;3210;48.708;9.030;2023-08-06T08:59:59;2.00;;;0.73;;
6354;SDS011;3210;48.708;9.030;2023-08-06T09:02:28;0.60;;;0.30;;
6354;SDS011;3210;48.708;9.030;2023-08-06T09:04:56;0.90;;;0.30;;
6354;SDS011;3210;48.708;9.030;2023-08-06T09:07:27;0.60;;;0.30;;
6354;SDS011;3210;48.708;9.030;2023-08-06T09:09:58;0.80;;;0.40;;
6354;SDS011;3210;48.708;9.030;2023-08-06T09:12:30;0.97;;;0.40;;
6354;SDS011;3210;48.708;9.030;2023-08-06T09:14:57;0.53;;;0.33;;
6354;SDS011;3210;48.708;9.030;2023-08-06T09:17:23;0.90;;;0.33;;
6354;SDS011;3210;48.708;9.030;2023-08-06T09:19:52;0.60;;;0.30;;
6354;SDS011;3210;48.708;9.030;2023-08-06T09:22:18;0.50;;;0.30;;
6354;SDS011;3210;48.708;9.030;2023-08-06T09:24:45;0.60;;;0.40;;
6354;SDS011;3210;48.708;9.030;2023-08-06T09:27:12;0.97;;;0.40;;
6354;SDS011;3210;48.708;9.030;2023-08-06T09:29:40;3.80;;;3.60;;
6354;SDS011;3210;48.708;9.030;2023-08-06T09:32:08;1.03;;;0.40;;
6354;SDS011;3210;48.708;9.030;2023-08-06T09:34:35;0.90;;;0.40;;
6354;SDS011;3210;48.708;9.030;2023-08-06T09:37:05;2.40;;;0.53;;
6354;SDS011;3210;48.708;9.030;2023-08-06T09:39:34;1.27;;;0.40;;
6354;SDS011;3210;48.708;9.030;2023-08-06T09:42:01;0.50;;;0.30;;
6354;SDS011;3210;48.708;9.030;2023-08-06T09:44:30;0.60;;;0.30;;
6354;SDS011;3210;48.708;9.030;2023-08-06T09:46:58;0.50;;;0.40;;
6354;SDS011;3210;48.708;9.030;2023-08-06T09:49:26;0.90;;;0.37;;
6354;SDS011;3210;48.708;9.030;2023-08-06T09:51:54;0.77;;;0.37;;
6354;SDS011;3210;48.708;9.030;2023-08-06T09:54:24;0.67;;;0.40;;
6354;SDS011;3210;48.708;9.030;2023-08-06T09:56:53;2.60;;;0.73;;
6354;SDS011;3210;48.708;9.030;2023-08-06T09:59:20;1.23;;;0.30;;
6354;SDS011;3210;48.708;9.030;2023-08-06T10:01:50;1.77;;;0.40;;
6354;SDS011;3210;48.708;9.030;2023-08-06T10:04:17;0.60;;;0.30;;
6354;SDS011;3210;48.708;9.030;2023-08-06T10:06:46;0.60;;;0.30;;
6354;SDS011;3210;48.708;9.030;2023-08-06T10:09:13;0.50;;;0.30;;
6354;SDS011;3210;48.708;9.030;2023-08-06T10:11:42;0.70;;;0.30;;
6354;SDS011;3210;48.708;9.030;2023-08-06T10:14:14;1.00;;;0.43;;
6354;SDS011;3210;48.708;9.030;2023-08-06T10:16:46;0.60;;;0.40;;
6354;SDS011;3210;48.708;9.030;2023-08-06T10:19:13;1.27;;;0.30;;
6354;SDS011;3210;48.708;9.030;2023-08-06T10:21:50;0.60;;;0.30;;
6354;SDS011;3210;48.708;9.030;2023-08-06T10:24:45;1.70;;;0.30;;
6354;SDS011;3210;48.708;9.030;2023-08-06T10:27:14;0.60;;;0.30;;
6354;SDS011;3210;48.708;9.030;2023-08-06T10:29:46;0.80;;;0.40;;
6354;SDS011;3210;48.708;9.030;2023-08-06T10:32:13;1.83;;;0.33;;
6354;SDS011;3210;48.708;9.030;2023-08-06T10:34:55;0.90;;;0.47;;
6354;SDS011;3210;48.708;9.030;2023-08-06T10:37:23;0.60;;;0.40;;
6354;SDS011;3210;48.708;9.030;2023-08-06T10:39:50;0.50;;;0.30;;
6354;SDS011;3210;48.708;9.030;2023-08-06T10:42:22;1.00;;;0.30;;
6354;SDS011;3210;48.708;9.030;2023-08-06T10:45:12;1.10;;;0.40;;
6354;SDS011;3210;48.708;9.030;2023-08-06T10:47:41;0.60;;;0.30;;
6354;SDS011;3210;48.708;9.030;2023-08-06T10:50:10;0.60;;;0.40;;
6354;SDS011;3210;48.708;9.030;2023-08-06T10:52:38;0.80;;;0.33;;
6354;SDS011;3210;48.708;9.030;2023-08-06T10:55:05;0.50;;;0.27;;
6354;SDS011;3210;48.708;9.030;2023-08-06T10:57:35;0.70;;;0.30;;
6354;SDS011;3210;48.708;9.030;2023-08-06T11:00:03;0.50;;;0.30;;
6354;SDS011;3210;48.708;9.030;2023-08-06T11:02:33;0.60;;;0.30;;
6354;SDS011;3210;48.708;9.030;2023-08-06T11:05:04;0.60;;;0.40;;
6354;SDS011;3210;48.708;9.030;2023-08-06T11:07:31;0.80;;;0.50;;
6354;SDS011;3210;48.708;9.030;2023-08-06T11:10:00;0.60;;;0.40;;
6354;SDS011;3210;48.708;9.030;2023-08-06T11:12:29;4.60;;;0.40;;
6354;SDS011;3210;48.708;9.030;2023-08-06T11:14:57;0.70;;;0.40;;
6354;SDS011;3210;48.708;9.030;2023-08-06T11:17:24;1.10;;;0.40;;
6354;SDS011;3210;48.708;9.030;2023-08-06T11:19:51;1.30;;;0.80;;
6354;SDS011;3210;48.708;9.030;2023-08-06T11:22:18;0.60;;;0.33;;
6354;SDS011;3210;48.708;9.030;2023-08-06T11:24:46;2.07;;;0.50;;
6354;SDS011;3210;48.708;9.030;2023-08-06T11:27:13;0.97;;;0.70;;
6354;SDS011;3210;48.708;9.030;2023-08-06T11:29:40;1.37;;;0.60;;
6354;SDS011;3210;48.708;9.030;2023-08-06T11:32:08;0.77;;;0.43;;
6354;SDS011;3210;48.708;9.030;2023-08-06T11:34:36;1.37;;;0.50;;
6354;SDS011;3210;48.708;9.030;2023-08-06T11:37:03;1.43;;;0.60;;
6354;SDS011;3210;48.708;9.030;2023-08-06T11:39:31;1.10;;;0.63;;
6354;SDS011;3210;48.708;9.030;2023-08-06T11:41:58;7.03;;;0.77;;
6354;SDS011;3210;48.708;9.030;2023-08-06T11:44:29;0.70;;;0.53;;
6354;SDS011;3210;48.708;9.030;2023-08-06T11:46:57;0.80;;;0.67;;
6354;SDS011;3210;48.708;9.030;2023-08-06T11:49:40;1.70;;;0.70;;
6354;SDS011;3210;48.708;9.030;2023-08-06T11:52:16;1.03;;;0.80;;
6354;SDS011;3210;48.708;9.030;2023-08-06T11:54:46;2.17;;;0.70;;
6354;SDS011;3210;48.708;9.030;2023-08-06T11:57:13;4.53;;;0.70;;
6354;SDS011;3210;48.708;9.030;2023-08-06T11:59:41;0.70;;;0.67;;
6354;SDS011;3210;48.708;9.030;2023-08-06T12:02:08;0.70;;;0.43;;
6354;SDS011;3210;48.708;9.030;2023-08-06T12:07:31;1.20;;;0.70;;
6354;SDS011;3210;48.708;9.030;2023-08-06T12:09:58;4.13;;;0.80;;
6354;SDS011;3210;48.708;9.030;2023-08-06T12:12:25;2.77;;;0.50;;
6354;SDS011;3210;48.708;9.030;2023-08-06T12:14:52;1.17;;;0.80;;
6354;SDS011;3210;48.708;9.030;2023-08-06T12:17:20;2.40;;;0.77;;
6354;SDS011;3210;48.708;9.030;2023-08-06T12:19:46;4.13;;;0.60;;
6354;SDS011;3210;48.708;9.030;2023-08-06T12:22:15;0.90;;;0.90;;
6354;SDS011;3210;48.708;9.030;2023-08-06T12:24:42;0.77;;;0.60;;
6354;SDS011;3210;48.708;9.030;2023-08-06T12:27:09;0.70;;;0.50;;
6354;SDS011;3210;48.708;9.030;2023-08-06T12:29:36;0.87;;;0.73;;
6354;SDS011;3210;48.708;9.030;2023-08-06T12:32:03;1.00;;;0.43;;
6354;SDS011;3210;48.708;9.030;2023-08-06T12:34:31;1.10;;;0.60;;
6354;SDS011;3210;48.708;9.030;2023-08-06T12:36:58;7.60;;;0.83;;
6354;SDS011;3210;48.708;9.030;2023-08-06T12:39:26;1.57;;;0.87;;
6354;SDS011;3210;48.708;9.030;2023-08-06T12:41:54;0.90;;;0.70;;
6354;SDS011;3210;48.708;9.030;2023-08-06T12:44:22;0.83;;;0.60;;
6354;SDS011;3210;48.708;9.030;2023-08-06T12:46:49;0.90;;;0.60;;
6354;SDS011;3210;48.708;9.030;2023-08-06T12:49:16;0.80;;;0.50;;
6354;SDS011;3210;48.708;9.030;2023-08-06T12:51:42;0.60;;;0.43;;
6354;SDS011;3210;48.708;9.030;2023-08-06T12:54:09;1.53;;;0.60;;
6354;SDS011;3210;48.708;9.030;2023-08-06T12:56:37;3.90;;;0.80;;
6354;SDS011;3210;48.708;9.030;2023-08-06T12:59:04;1.00;;;0.70;;
6354;SDS011;3210;48.708;9.030;2023-08-06T13:01:31;2.27;;;1.47;;
6354;SDS011;3210;48.708;9.030;2023-08-06T13:03:58;4.10;;;1.70;;
6354;SDS011;3210;48.708;9.030;2023-08-06T13:06:26;1.67;;;1.00;;
6354;SDS011;3210;48.708;9.030;2023-08-06T13:08:53;2.80;;;1.17;;
6354;SDS011;3210;48.708;9.030;2023-08-06T13:11:19;2.90;;;1.10;;
6354;SDS011;3210;48.708;9.030;2023-08-06T13:13:47;2.60;;;1.20;;
6354;SDS011;3210;48.708;9.030;2023-08-06T13:16:14;1.83;;;1.03;;
6354;SDS011;3210;48.708;9.030;2023-08-06T13:18:41;1.40;;;1.07;;
6354;SDS011;3210;48.708;9.030;2023-08-06T13:21:08;3.90;;;0.70;;
6354;SDS011;3210;48.708;9.030;2023-08-06T13:23:35;1.30;;;0.57;;
6354;SDS011;3210;48.708;9.030;2023-08-06T13:26:02;5.40;;;0.80;;
6354;SDS011;3210;48.708;9.030;2023-08-06T13:28:29;0.70;;;0.70;;
6354;SDS011;3210;48.708;9.030;2023-08-06T13:30:57;0.73;;;0.60;;
6354;SDS011;3210;48.708;9.030;2023-08-06T13:33:24;0.97;;;0.80;;
6354;SDS011;3210;48.708;9.030;2023-08-06T13:35:51;3.13;;;0.73;;
6354;SDS011;3210;48.708;9.030;2023-08-06T13:38:18;0.97;;;0.57;;
6354;SDS011;3210;48.708;9.030;2023-08-06T13:40:45;0.70;;;0.50;;
6354;SDS011;3210;48.708;9.030;2023-08-06T13:43:12;0.73;;;0.60;;
6354;SDS011;3210;48.708;9.030;2023-08-06T13:45:40;1.13;;;0.50;;
6354;SDS011;3210;48.708;9.030;2023-08-06T13:48:09;0.60;;;0.40;;
6354;SDS011;3210;48.708;9.030;2023-08-06T13:50:35;0.93;;;0.40;;
6354;SDS011;3210;48.708;9.030;2023-08-06T13:53:02;0.70;;;0.40;;
6354;SDS011;3210;48.708;9.030;2023-08-06T13:55:29;0.80;;;0.40;;
6354;SDS011;3210;48.708;9.030;2023-08-06T13:57:56;0.60;;;0.40;;
6354;SDS011;3210;48.708;9.030;2023-08-06T14:00:23;0.80;;;0.50;;
6354;SDS011;3210;48.708;9.030;2023-08-06T14:02:50;1.50;;;0.80;;
6354;SDS011;3210;48.708;9.030;2023-08-06T14:05:18;0.73;;;0.50;;
6354;SDS011;3210;48.708;9.030;2023-08-06T14:07:45;0.83;;;0.60;;
6354;SDS011;3210;48.708;9.030;2023-08-06T14:10:12;0.60;;;0.43;;
6354;SDS011;3210;48.708;9.030;2023-08-06T14:12:38;1.53;;;0.57;;
6354;SDS011;3210;48.708;9.030;2023-08-06T14:15:05;0.87;;;0.47;;
6354;SDS011;3210;48.708;9.030;2023-08-06T14:17:33;1.87;;;0.60;;
6354;SDS011;3210;48.708;9.030;2023-08-06T14:20:00;1.77;;;0.70;;
6354;SDS011;3210;48.708;9.030;2023-08-06T14:22:29;0.70;;;0.50;;
6354;SDS011;3210;48.708;9.030;2023-08-06T14:24:56;0.90;;;0.80;;
6354;SDS011;3210;48.708;9.030;2023-08-06T14:27:23;0.90;;;0.70;;
6354;SDS011;3210;48.708;9.030;2023-08-06T14:29:50;1.33;;;0.70;;
6354;SDS011;3210;48.708;9.030;2023-08-06T14:32:17;7.70;;;0.70;;
6354;SDS011;3210;48.708;9.030;2023-08-06T14:34:44;7.33;;;1.00;;
6354;SDS011;3210;48.708;9.030;2023-08-06T14:37:11;1.10;;;1.00;;
6354;SDS011;3210;48.708;9.030;2023-08-06T14:39:39;4.33;;;0.77;;
6354;SDS011;3210;48.708;9.030;2023-08-06T14:42:06;4.00;;;0.77;;
6354;SDS011;3210;48.708;9.030;2023-08-06T14:44:33;1.27;;;0.60;;
6354;SDS011;3210;48.708;9.030;2023-08-06T14:47:00;5.43;;;1.00;;
6354;SDS011;3210;48.708;9.030;2023-08-06T14:49:26;4.83;;;1.03;;
6354;SDS011;3210;48.708;9.030;2023-08-06T14:51:53;0.70;;;0.57;;
6354;SDS011;3210;48.708;9.030;2023-08-06T14:54:24;1.30;;;0.90;;
6354;SDS011;3210;48.708;9.030;2023-08-06T14:56:52;1.17;;;0.80;;
6354;SDS011;3210;48.708;9.030;2023-08-06T14:59:19;1.03;;;0.70;;
6354;SDS011;3210;48.708;9.030;2023-08-06T15:01:46;1.90;;;1.10;;
6354;SDS011;3210;48.708;9.030;2023-08-06T15:04:12;2.40;;;0.50;;
6354;SDS011;3210;48.708;9.030;2023-08-06T15:06:39;1.47;;;0.53;;
6354;SDS011;3210;48.708;9.030;2023-08-06T15:09:06;0.70;;;0.57;;
6354;SDS011;3210;48.708;9.030;2023-08-06T15:11:33;0.90;;;0.63;;
6354;SDS011;3210;48.708;9.030;2023-08-06T15:14:01;2.00;;;0.87;;
6354;SDS011;3210;48.708;9.030;2023-08-06T15:16:30;2.00;;;0.90;;
6354;SDS011;3210;48.708;9.030;2023-08-06T15:18:59;1.33;;;0.80;;
6354;SDS011;3210;48.708;9.030;2023-08-06T15:21:25;2.03;;;1.10;;